Time;durP1;ratioP1;P1;durP2;ratioP2;P2;SDS_P1;SDS_P2;PMS_P1;PMS_P2;Temp;Humidity;BMP_temperature;BMP_pressure;BME280_temperature;BME280_humidity;BME280_pressure;Samples;Min_cycle;Max_cycle;Signal;HPM_P1;HPM_P2
2020/12/19 00:01:42;;;;;;;15.70;9.53;;;5.90;93.60;;;;;;5013619;28;20172;-73
2020/12/19 00:04:08;;;;;;;18.80;10.03;;;5.90;93.50;;;;;;5002294;28;20452;-76
2020/12/19 00:06:33;;;;;;;14.53;7.80;;;5.90;93.60;;;;;;4975289;28;20462;-74
2020/12/19 00:08:59;;;;;;;16.60;9.87;;;5.90;93.60;;;;;;5003734;28;20190;-75
2020/12/19 00:11:25;;;;;;;18.17;10.03;;;5.90;93.60;;;;;;4993697;28;20699;-76
2020/12/19 00:13:50;;;;;;;22.17;10.40;;;5.90;93.60;;;;;;4992940;28;20435;-77
2020/12/19 00:16:17;;;;;;;16.13;8.60;;;5.90;93.60;;;;;;4993551;28;20176;-74
2020/12/19 00:18:44;;;;;;;21.60;10.53;;;5.90;93.60;;;;;;5004164;28;20174;-75
2020/12/19 00:21:10;;;;;;;15.60;9.13;;;5.90;93.60;;;;;;4995348;28;20454;-73
2020/12/19 00:23:37;;;;;;;22.57;11.30;;;6.00;93.70;;;;;;4993284;28;20435;-74
2020/12/19 00:26:03;;;;;;;15.37;10.27;;;6.00;93.60;;;;;;4993528;28;20450;-74
2020/12/19 00:28:29;;;;;;;18.07;9.37;;;6.00;93.60;;;;;;4992564;28;20450;-74
2020/12/19 00:30:55;;;;;;;18.80;10.40;;;6.00;93.50;;;;;;5008989;28;20534;-75
2020/12/19 00:33:21;;;;;;;20.00;10.47;;;6.00;93.50;;;;;;5004769;28;20423;-75
2020/12/19 00:35:47;;;;;;;15.47;9.40;;;6.00;93.50;;;;;;4993816;28;20425;-75
2020/12/19 00:38:13;;;;;;;15.17;9.30;;;6.00;93.50;;;;;;4992043;28;20411;-74
2020/12/19 00:40:39;;;;;;;19.87;9.60;;;6.00;93.50;;;;;;5006358;28;20917;-73
2020/12/19 00:43:04;;;;;;;18.43;10.23;;;6.00;93.50;;;;;;5012862;28;20171;-74
2020/12/19 00:45:30;;;;;;;18.40;9.33;;;6.10;93.50;;;;;;5012485;28;20286;-73
2020/12/19 00:47:56;;;;;;;15.70;9.13;;;6.10;93.50;;;;;;5010848;28;20203;-76
2020/12/19 00:50:22;;;;;;;17.43;10.40;;;6.10;93.80;;;;;;5002636;28;20191;-73
2020/12/19 00:52:47;;;;;;;13.50;9.37;;;6.20;93.40;;;;;;5011429;28;20238;-73
2020/12/19 00:55:13;;;;;;;13.70;9.13;;;6.30;93.30;;;;;;5008338;28;20871;-73
2020/12/19 00:57:39;;;;;;;16.80;9.07;;;6.30;93.20;;;;;;4994217;28;20187;-74
2020/12/19 01:00:08;;;;;;;14.00;9.07;;;6.40;93.10;;;;;;4992895;28;20203;-74
2020/12/19 01:02:38;;;;;;;18.00;9.70;;;6.50;93.10;;;;;;4996014;28;20732;-73
2020/12/19 01:05:08;;;;;;;16.17;9.23;;;6.50;92.90;;;;;;5000560;28;20987;-75
2020/12/19 01:07:38;;;;;;;14.20;8.13;;;6.60;92.80;;;;;;4992237;28;20407;-75
2020/12/19 01:10:06;;;;;;;14.70;8.70;;;6.60;92.60;;;;;;4992642;28;20414;-74
2020/12/19 01:12:33;;;;;;;14.93;9.10;;;6.60;92.50;;;;;;4992552;28;20880;-74
2020/12/19 01:14:58;;;;;;;16.50;7.87;;;6.50;92.50;;;;;;5002191;28;20449;-75
2020/12/19 01:17:24;;;;;;;15.40;7.73;;;6.50;92.50;;;;;;5011516;28;20424;-75
2020/12/19 01:19:49;;;;;;;15.53;7.70;;;6.40;92.60;;;;;;5006033;28;20676;-74
2020/12/19 01:22:15;;;;;;;18.23;8.97;;;6.40;92.70;;;;;;4992908;28;20174;-73
2020/12/19 01:24:41;;;;;;;17.43;8.80;;;6.30;92.70;;;;;;4998773;28;20199;-76
2020/12/19 01:27:07;;;;;;;19.60;10.20;;;6.30;92.80;;;;;;5012442;28;20167;-74
2020/12/19 01:29:33;;;;;;;19.13;8.67;;;6.30;93.20;;;;;;5012315;28;20167;-74
2020/12/19 01:31:59;;;;;;;13.20;9.23;;;6.30;92.80;;;;;;5010573;28;20458;-73
2020/12/19 01:34:24;;;;;;;17.30;8.10;;;6.30;93.20;;;;;;5007028;28;20187;-74
2020/12/19 01:36:50;;;;;;;15.10;8.50;;;6.30;92.90;;;;;;5012576;28;20508;-74
2020/12/19 01:39:15;;;;;;;13.13;8.67;;;6.30;92.90;;;;;;5011776;28;20172;-73
2020/12/19 01:41:41;;;;;;;16.03;10.33;;;6.30;93.00;;;;;;5000310;28;20168;-73
2020/12/19 01:44:07;;;;;;;18.13;8.67;;;6.30;93.00;;;;;;4993843;28;20815;-73
2020/12/19 01:46:53;;;;;;;17.73;9.00;;;6.30;93.00;;;;;;5011714;28;20167;-73
2020/12/19 01:49:20;;;;;;;16.73;8.40;;;6.30;93.10;;;;;;5006811;28;20167;-73
2020/12/19 01:51:47;;;;;;;14.20;8.87;;;6.40;93.10;;;;;;4992044;28;20549;-73
2020/12/19 01:54:13;;;;;;;15.00;7.83;;;6.50;93.00;;;;;;4994153;28;20438;-73
2020/12/19 01:56:44;;;;;;;11.17;7.87;;;6.60;92.90;;;;;;5011970;28;20410;-73
2020/12/19 01:59:14;;;;;;;13.10;7.47;;;6.60;92.70;;;;;;5011744;28;20880;-74
2020/12/19 02:01:48;;;;;;;13.87;8.40;;;6.70;92.50;;;;;;5012137;28;20776;-74
2020/12/19 02:04:14;;;;;;;14.77;8.53;;;6.80;92.40;;;;;;5008163;28;20464;-72
2020/12/19 02:06:46;;;;;;;12.70;8.03;;;6.80;92.30;;;;;;4993435;28;20859;-74
2020/12/19 02:09:14;;;;;;;14.30;8.20;;;6.80;92.20;;;;;;4990783;28;20425;-72
2020/12/19 02:11:42;;;;;;;14.00;8.37;;;6.70;92.10;;;;;;4992192;28;20577;-75
2020/12/19 02:14:08;;;;;;;13.60;8.60;;;6.70;92.50;;;;;;4992973;28;20466;-74
2020/12/19 02:16:35;;;;;;;13.10;7.90;;;6.70;92.20;;;;;;5010655;28;20772;-74
2020/12/19 02:19:01;;;;;;;13.23;8.13;;;6.70;92.20;;;;;;5014813;28;20417;-75
2020/12/19 02:21:27;;;;;;;14.20;8.53;;;6.60;92.20;;;;;;5015893;28;20819;-74
2020/12/19 02:23:52;;;;;;;19.83;10.03;;;6.60;92.30;;;;;;5010864;28;20450;-75
2020/12/19 02:26:18;;;;;;;12.63;7.37;;;6.60;92.30;;;;;;5014391;28;20425;-75
2020/12/19 02:28:43;;;;;;;16.47;8.83;;;6.60;92.40;;;;;;5004729;28;20167;-73
2020/12/19 02:31:09;;;;;;;15.00;8.97;;;6.60;92.40;;;;;;5002325;28;20740;-73
2020/12/19 02:33:35;;;;;;;18.40;10.80;;;6.60;92.50;;;;;;5010734;28;20221;-74
2020/12/19 02:36:00;;;;;;;14.50;9.23;;;6.60;92.60;;;;;;5015782;28;20167;-74
2020/12/19 02:38:26;;;;;;;18.23;9.53;;;6.60;92.60;;;;;;5005985;28;20255;-73
2020/12/19 02:40:52;;;;;;;16.23;9.70;;;6.60;92.50;;;;;;4998147;28;20233;-73
2020/12/19 02:43:17;;;;;;;16.17;8.77;;;6.70;92.40;;;;;;4995535;28;20178;-73
2020/12/19 02:45:43;;;;;;;17.03;9.60;;;6.70;92.40;;;;;;4995472;28;20213;-72
2020/12/19 02:48:08;;;;;;;12.33;8.57;;;6.60;92.30;;;;;;4995817;28;20172;-75
2020/12/19 02:50:34;;;;;;;14.60;8.83;;;6.60;92.40;;;;;;5012341;28;20171;-72
2020/12/19 02:53:00;;;;;;;14.73;8.87;;;6.60;92.50;;;;;;5014119;28;20174;-74
2020/12/19 02:55:26;;;;;;;14.90;9.20;;;6.50;92.50;;;;;;4995378;28;20759;-73
2020/12/19 02:57:51;;;;;;;18.60;10.20;;;6.50;92.70;;;;;;4994657;28;20533;-73
2020/12/19 03:00:17;;;;;;;18.50;9.10;;;6.50;92.70;;;;;;4995093;28;20841;-74
2020/12/19 03:02:43;;;;;;;15.97;9.17;;;6.50;92.70;;;;;;5014036;28;20167;-71
2020/12/19 03:05:08;;;;;;;17.23;9.87;;;6.50;92.70;;;;;;5013145;28;20207;-72
2020/12/19 03:07:34;;;;;;;13.07;8.33;;;6.50;92.60;;;;;;4994898;28;20254;-72
2020/12/19 03:10:00;;;;;;;15.67;8.40;;;6.50;92.50;;;;;;4995099;28;20167;-72
2020/12/19 03:12:25;;;;;;;18.80;9.90;;;6.50;92.60;;;;;;5009526;28;20257;-72
2020/12/19 03:14:51;;;;;;;17.33;10.00;;;6.40;93.00;;;;;;5008696;28;20194;-72
2020/12/19 03:17:16;;;;;;;13.30;8.17;;;6.40;92.70;;;;;;4993245;28;20207;-72
2020/12/19 03:19:42;;;;;;;18.47;9.50;;;6.40;92.70;;;;;;4997522;28;20170;-72
2020/12/19 03:22:08;;;;;;;15.33;10.10;;;6.40;92.70;;;;;;4998963;28;20603;-71
2020/12/19 03:24:33;;;;;;;14.03;9.13;;;6.40;92.70;;;;;;4992934;28;20270;-71
2020/12/19 03:26:59;;;;;;;21.90;11.30;;;6.30;92.70;;;;;;4994463;28;20248;-72
2020/12/19 03:29:24;;;;;;;16.60;9.17;;;6.30;92.70;;;;;;4994645;28;20168;-72
2020/12/19 03:31:50;;;;;;;19.43;9.60;;;6.30;92.80;;;;;;5004247;28;20195;-72
2020/12/19 03:34:15;;;;;;;15.63;10.07;;;6.30;92.70;;;;;;5000792;28;20203;-72
2020/12/19 03:36:41;;;;;;;23.00;9.97;;;6.30;92.70;;;;;;5000852;28;20214;-72
2020/12/19 03:39:07;;;;;;;20.37;10.70;;;6.30;92.60;;;;;;5012229;28;20260;-70
2020/12/19 03:41:32;;;;;;;17.37;9.23;;;6.30;92.70;;;;;;5005500;28;20176;-71
2020/12/19 03:43:58;;;;;;;18.70;10.70;;;6.20;92.70;;;;;;4994245;28;20603;-72
2020/12/19 03:46:24;;;;;;;20.23;11.10;;;6.20;92.60;;;;;;4995616;28;20284;-72
2020/12/19 03:48:49;;;;;;;19.60;10.40;;;6.20;93.00;;;;;;4994471;28;20168;-71
2020/12/19 03:51:15;;;;;;;17.20;10.67;;;6.10;92.70;;;;;;4994976;28;20192;-71
2020/12/19 03:53:40;;;;;;;18.03;11.17;;;6.10;92.70;;;;;;4993652;28;20227;-71
2020/12/19 03:56:07;;;;;;;15.73;10.83;;;6.00;92.80;;;;;;5006817;28;20167;-71
2020/12/19 03:58:33;;;;;;;20.83;11.93;;;6.00;92.90;;;;;;5014339;28;20155;-70
2020/12/19 04:00:58;;;;;;;18.50;11.20;;;6.00;92.90;;;;;;5014321;28;20509;-71
2020/12/19 04:03:24;;;;;;;16.37;10.27;;;6.00;93.00;;;;;;5012253;28;20175;-71
2020/12/19 04:05:50;;;;;;;17.43;11.00;;;6.00;93.00;;;;;;5003376;28;20175;-70
2020/12/19 04:08:15;;;;;;;18.40;9.57;;;6.00;93.10;;;;;;4993981;28;20673;-72
2020/12/19 04:10:41;;;;;;;15.57;9.60;;;6.00;93.00;;;;;;5002502;28;20195;-70
2020/12/19 04:13:07;;;;;;;22.33;11.60;;;6.00;93.10;;;;;;5012938;28;20175;-71
2020/12/19 04:15:32;;;;;;;20.77;10.90;;;6.00;93.10;;;;;;5005412;28;20206;-72
2020/12/19 04:17:58;;;;;;;18.70;9.50;;;6.00;93.20;;;;;;5002924;28;20171;-74
2020/12/19 04:20:24;;;;;;;18.20;9.13;;;6.00;93.10;;;;;;4996519;28;20175;-74
2020/12/19 04:22:49;;;;;;;21.47;10.60;;;6.00;93.40;;;;;;4993634;28;20180;-75
2020/12/19 04:25:15;;;;;;;14.67;8.93;;;5.90;93.10;;;;;;4993044;28;20183;-75
2020/12/19 04:27:41;;;;;;;18.90;10.90;;;5.90;93.20;;;;;;4993411;28;20519;-73
2020/12/19 04:30:09;;;;;;;22.37;10.00;;;5.90;93.10;;;;;;4996433;28;20258;-75
2020/12/19 04:32:35;;;;;;;16.47;10.50;;;5.90;93.20;;;;;;4992886;28;20855;-75
2020/12/19 04:35:01;;;;;;;21.23;10.13;;;5.90;93.20;;;;;;4992838;28;21150;-74
2020/12/19 04:37:27;;;;;;;17.30;10.57;;;5.90;93.30;;;;;;5002623;28;20438;-74
2020/12/19 04:39:53;;;;;;;17.77;10.80;;;5.80;93.20;;;;;;5009666;28;20456;-74
2020/12/19 04:42:23;;;;;;;22.20;10.30;;;5.80;93.30;;;;;;5012512;28;20174;-73
2020/12/19 04:44:49;;;;;;;21.27;10.90;;;5.80;93.30;;;;;;5011202;28;20442;-74
2020/12/19 04:47:15;;;;;;;19.30;10.07;;;5.80;93.30;;;;;;4995892;28;20428;-73
2020/12/19 04:49:45;;;;;;;14.87;9.50;;;5.80;93.30;;;;;;4993825;28;20933;-74
2020/12/19 04:52:12;;;;;;;17.60;10.97;;;5.80;93.30;;;;;;4994349;28;21083;-75
2020/12/19 04:54:38;;;;;;;15.77;9.53;;;5.80;93.40;;;;;;4991784;28;20422;-73
2020/12/19 04:57:04;;;;;;;16.93;11.67;;;5.80;93.30;;;;;;4992768;28;20456;-73
2020/12/19 04:59:31;;;;;;;19.20;9.90;;;5.80;93.40;;;;;;5008691;28;20410;-74
2020/12/19 05:01:57;;;;;;;25.07;11.40;;;5.80;93.40;;;;;;5010763;28;20417;-74
2020/12/19 05:04:23;;;;;;;17.83;11.20;;;5.80;93.40;;;;;;5006108;28;20458;-74
2020/12/19 05:06:49;;;;;;;16.77;10.40;;;5.80;93.50;;;;;;4991672;28;20414;-74
2020/12/19 05:09:15;;;;;;;18.00;9.83;;;5.70;93.40;;;;;;5004947;28;20418;-71
2020/12/19 05:11:41;;;;;;;17.90;10.03;;;5.70;93.40;;;;;;5012329;28;20480;-74
2020/12/19 05:14:07;;;;;;;18.83;10.70;;;5.70;93.50;;;;;;5004696;28;20971;-72
2020/12/19 05:16:34;;;;;;;17.30;10.57;;;5.70;93.60;;;;;;4991302;28;20403;-73
2020/12/19 05:19:09;;;;;;;14.90;9.90;;;5.70;93.60;;;;;;5002910;28;20422;-73
2020/12/19 05:21:43;;;;;;;17.70;12.20;;;5.70;93.60;;;;;;5010567;28;20475;-74
2020/12/19 05:24:11;;;;;;;21.10;11.27;;;5.70;93.70;;;;;;5010590;28;20549;-74
2020/12/19 05:26:37;;;;;;;16.53;9.27;;;5.70;93.70;;;;;;5011908;28;20405;-74
2020/12/19 05:29:04;;;;;;;17.90;10.40;;;5.70;93.70;;;;;;5000296;28;20438;-74
2020/12/19 05:31:33;;;;;;;12.93;10.07;;;5.70;93.80;;;;;;4992467;28;20465;-74
2020/12/19 05:33:59;;;;;;;16.70;9.87;;;5.70;93.80;;;;;;4991646;28;20443;-74
2020/12/19 05:36:28;;;;;;;23.00;10.40;;;5.70;93.80;;;;;;4990888;28;20493;-72
2020/12/19 05:38:59;;;;;;;12.37;8.03;;;5.70;93.80;;;;;;5003375;28;20314;-72
2020/12/19 05:41:25;;;;;;;15.07;9.50;;;5.70;93.70;;;;;;5011576;28;20438;-73
2020/12/19 05:43:52;;;;;;;17.07;9.97;;;5.70;93.80;;;;;;5012013;28;20468;-72
2020/12/19 05:46:37;;;;;;;19.93;10.50;;;5.80;93.90;;;;;;5011947;28;20178;-73
2020/12/19 05:49:05;;;;;;;15.70;9.60;;;5.80;93.90;;;;;;4993453;28;20427;-73
2020/12/19 05:51:32;;;;;;;14.93;10.40;;;5.90;94.00;;;;;;4992020;28;20490;-73
2020/12/19 05:54:09;;;;;;;19.47;11.33;;;5.90;93.90;;;;;;5002304;28;20438;-74
2020/12/19 05:56:41;;;;;;;18.70;11.77;;;5.90;93.90;;;;;;5011818;28;20418;-73
2020/12/19 05:59:17;;;;;;;18.63;10.30;;;5.90;93.70;;;;;;4994119;28;20415;-73
2020/12/19 06:01:47;;;;;;;19.33;10.47;;;5.90;93.50;;;;;;4992619;28;20469;-73
2020/12/19 06:04:15;;;;;;;32.57;11.63;;;6.00;93.60;;;;;;4989810;28;20463;-74
2020/12/19 06:06:46;;;;;;;20.23;10.80;;;6.00;93.60;;;;;;4991985;28;20457;-73
2020/12/19 06:09:13;;;;;;;15.37;9.93;;;6.00;93.50;;;;;;4992209;28;20426;-74
2020/12/19 06:12:00;;;;;;;20.80;10.97;;;6.00;93.50;;;;;;4991627;28;20489;-73
2020/12/19 06:14:30;;;;;;;16.63;10.37;;;6.00;93.50;;;;;;4992078;28;20901;-74
2020/12/19 06:17:05;;;;;;;16.87;10.20;;;6.00;93.70;;;;;;4973960;28;20797;-74
2020/12/19 06:19:32;;;;;;;15.17;9.90;;;6.00;93.70;;;;;;5002375;28;20424;-74
2020/12/19 06:21:59;;;;;;;17.30;9.97;;;6.00;93.70;;;;;;5010508;28;20426;-73
2020/12/19 06:24:45;;;;;;;17.70;10.90;;;6.10;93.90;;;;;;5000665;28;20443;-73
2020/12/19 06:27:23;;;;;;;17.67;10.70;;;6.20;93.90;;;;;;4991758;28;20506;-74
2020/12/19 06:29:52;;;;;;;17.00;10.27;;;6.30;93.80;;;;;;4993465;28;20429;-74
2020/12/19 06:32:22;;;;;;;17.70;9.57;;;6.30;93.60;;;;;;5010915;28;20460;-72
2020/12/19 06:34:59;;;;;;;17.60;11.00;;;6.40;93.50;;;;;;4998755;28;20435;-74
2020/12/19 06:37:26;;;;;;;16.07;10.10;;;6.50;93.30;;;;;;4992310;28;20766;-74
2020/12/19 06:40:16;;;;;;;14.97;11.07;;;6.50;93.20;;;;;;4991313;28;20494;-72
2020/12/19 06:42:44;;;;;;;19.57;10.73;;;6.50;93.20;;;;;;4996498;28;20417;-73
2020/12/19 06:45:28;;;;;;;17.60;11.07;;;6.50;93.10;;;;;;4998165;28;20446;-75
2020/12/19 06:47:56;;;;;;;17.20;9.83;;;6.50;93.10;;;;;;4991927;28;20407;-74
2020/12/19 06:50:24;;;;;;;16.63;10.00;;;6.50;93.10;;;;;;4991561;28;20414;-73
2020/12/19 06:52:59;;;;;;;18.67;10.30;;;6.50;93.10;;;;;;4991518;28;20469;-75
2020/12/19 06:55:29;;;;;;;17.60;11.13;;;6.50;93.20;;;;;;5004604;28;20429;-74
2020/12/19 06:57:59;;;;;;;17.30;10.37;;;6.50;93.30;;;;;;5009991;28;20415;-74
2020/12/19 07:00:31;;;;;;;18.70;9.90;;;6.50;93.30;;;;;;5010724;28;20418;-73
2020/12/19 07:03:02;;;;;;;16.40;9.50;;;6.50;93.20;;;;;;5012459;28;20943;-74
2020/12/19 07:05:31;;;;;;;16.83;11.33;;;6.40;93.20;;;;;;4998490;28;20520;-73
2020/12/19 07:08:15;;;;;;;24.57;10.87;;;6.40;93.30;;;;;;4995034;28;20421;-73
2020/12/19 07:10:41;;;;;;;17.23;9.87;;;6.40;93.30;;;;;;5012201;28;20418;-75
2020/12/19 07:13:06;;;;;;;20.23;9.33;;;6.40;93.40;;;;;;5014452;28;20918;-75
2020/12/19 07:15:52;;;;;;;18.23;11.20;;;6.40;93.50;;;;;;4997953;28;20191;-75
2020/12/19 07:18:34;;;;;;;18.20;9.60;;;6.40;93.60;;;;;;4994257;28;20184;-74
2020/12/19 07:21:04;;;;;;;20.00;10.80;;;6.50;93.60;;;;;;4993315;28;20406;-73
2020/12/19 07:23:32;;;;;;;24.27;11.30;;;6.50;93.50;;;;;;5009356;28;20421;-75
2020/12/19 07:25:58;;;;;;;17.33;10.47;;;6.50;93.50;;;;;;5012973;28;20516;-74
2020/12/19 07:28:24;;;;;;;23.30;11.47;;;6.50;93.50;;;;;;5013992;28;20489;-73
2020/12/19 07:30:50;;;;;;;15.80;10.20;;;6.50;93.40;;;;;;5013810;28;20951;-75
2020/12/19 07:33:16;;;;;;;17.60;11.07;;;6.50;93.40;;;;;;5013868;28;20226;-75
2020/12/19 07:35:42;;;;;;;16.43;10.73;;;6.60;93.40;;;;;;5012676;28;20500;-74
2020/12/19 07:38:08;;;;;;;19.80;11.43;;;6.60;93.40;;;;;;5013240;28;20497;-73
2020/12/19 07:40:34;;;;;;;15.53;10.90;;;6.60;93.40;;;;;;5012697;28;20416;-73
2020/12/19 07:43:00;;;;;;;13.60;9.80;;;6.70;93.30;;;;;;4996621;28;21015;-76
2020/12/19 07:45:26;;;;;;;17.20;11.13;;;6.70;93.60;;;;;;4992576;28;20275;-73
2020/12/19 07:47:52;;;;;;;15.50;10.50;;;6.70;93.20;;;;;;4993940;28;20495;-74
2020/12/19 07:50:26;;;;;;;16.90;9.83;;;6.80;93.10;;;;;;5000225;28;20186;-75
2020/12/19 07:53:06;;;;;;;20.03;11.00;;;6.80;93.10;;;;;;4997911;28;20415;-75
2020/12/19 07:55:33;;;;;;;16.20;9.60;;;6.80;93.00;;;;;;5003575;28;20477;-74
2020/12/19 07:58:00;;;;;;;16.20;10.20;;;6.80;92.90;;;;;;4996089;28;20431;-75
2020/12/19 08:00:26;;;;;;;15.40;9.67;;;6.80;92.90;;;;;;4992386;28;20414;-71
2020/12/19 08:02:53;;;;;;;14.73;9.27;;;6.80;92.90;;;;;;5004808;28;20896;-73
2020/12/19 08:05:19;;;;;;;16.43;9.37;;;6.80;92.80;;;;;;4970099;28;20448;-72
2020/12/19 08:07:49;;;;;;;18.10;10.90;;;6.80;92.80;;;;;;4978773;28;20864;-73
2020/12/19 08:10:15;;;;;;;16.27;10.43;;;6.80;92.80;;;;;;4981530;28;20447;-73
2020/12/19 08:12:41;;;;;;;13.73;9.70;;;6.90;92.70;;;;;;5005895;28;20492;-74
2020/12/19 08:15:10;;;;;;;18.50;10.37;;;6.90;92.70;;;;;;5011868;28;20253;-72
2020/12/19 08:17:51;;;;;;;19.53;9.77;;;6.90;92.60;;;;;;5012747;28;20221;-72
2020/12/19 08:20:20;;;;;;;17.77;10.50;;;7.00;92.60;;;;;;4993776;28;20507;-73
2020/12/19 08:22:47;;;;;;;18.50;9.90;;;7.00;92.50;;;;;;5009073;28;20839;-72
2020/12/19 08:25:12;;;;;;;20.77;10.10;;;7.00;92.40;;;;;;5012808;28;20484;-73
2020/12/19 08:27:43;;;;;;;17.93;8.43;;;7.00;92.30;;;;;;5012886;28;20669;-73
2020/12/19 08:30:19;;;;;;;16.20;9.87;;;7.00;92.20;;;;;;5012933;28;20178;-73
2020/12/19 08:33:07;;;;;;;15.83;9.67;;;7.00;92.10;;;;;;4997112;28;20549;-73
2020/12/19 08:35:53;;;;;;;18.20;10.33;;;7.00;92.20;;;;;;4993903;28;20434;-73
2020/12/19 08:38:24;;;;;;;13.47;9.20;;;7.10;92.20;;;;;;4993114;28;20522;-71
2020/12/19 08:40:51;;;;;;;17.20;8.77;;;7.10;92.10;;;;;;4993874;28;20411;-75
2020/12/19 08:43:18;;;;;;;15.03;10.37;;;7.10;92.10;;;;;;5010176;28;21066;-74
2020/12/19 08:45:49;;;;;;;14.33;9.70;;;7.20;92.10;;;;;;5006920;28;20959;-74
2020/12/19 08:48:17;;;;;;;15.83;10.20;;;7.20;92.00;;;;;;5010661;28;20927;-72
2020/12/19 08:50:44;;;;;;;17.47;9.30;;;7.20;91.90;;;;;;5012394;28;20420;-73
2020/12/19 08:53:14;;;;;;;15.93;9.83;;;7.30;91.80;;;;;;5011107;28;20417;-73
2020/12/19 08:55:40;;;;;;;16.20;10.10;;;7.40;91.70;;;;;;5011750;28;20811;-73
2020/12/19 08:58:07;;;;;;;13.33;8.80;;;7.40;91.70;;;;;;5012197;28;20398;-73
2020/12/19 09:00:38;;;;;;;15.00;8.67;;;7.40;91.60;;;;;;5011742;28;20216;-73
2020/12/19 09:03:08;;;;;;;14.33;8.87;;;7.50;91.50;;;;;;5010338;28;20930;-74
2020/12/19 09:05:42;;;;;;;11.50;7.57;;;7.50;91.40;;;;;;4995114;28;20623;-74
2020/12/19 09:08:13;;;;;;;14.63;9.30;;;7.60;91.20;;;;;;5003508;28;20936;-74
2020/12/19 09:10:40;;;;;;;12.30;8.30;;;7.60;91.10;;;;;;4992002;28;20472;-73
2020/12/19 09:13:17;;;;;;;16.07;8.83;;;7.70;91.00;;;;;;4983306;28;20407;-73
2020/12/19 09:15:44;;;;;;;13.73;9.20;;;7.80;90.80;;;;;;4989881;28;20407;-72
2020/12/19 09:18:20;;;;;;;14.57;7.80;;;7.80;90.60;;;;;;4991786;28;20756;-74
2020/12/19 09:20:50;;;;;;;11.10;8.30;;;7.90;90.50;;;;;;4990976;28;20422;-73
2020/12/19 09:23:16;;;;;;;12.10;8.30;;;7.90;90.30;;;;;;4986150;28;20426;-74
2020/12/19 09:25:42;;;;;;;18.83;8.00;;;8.10;90.40;;;;;;4991343;28;20497;-74
2020/12/19 09:28:08;;;;;;;14.13;6.90;;;8.60;90.10;;;;;;4992773;28;20164;-74
2020/12/19 09:30:33;;;;;;;11.80;7.40;;;9.20;88.30;;;;;;4990661;28;20522;-73
2020/12/19 09:32:59;;;;;;;8.80;6.40;;;10.00;84.50;;;;;;4990463;28;20163;-73
2020/12/19 09:35:27;;;;;;;9.63;7.17;;;10.50;81.40;;;;;;4999331;28;20269;-72
2020/12/19 09:37:53;;;;;;;11.13;6.57;;;10.90;78.90;;;;;;5009717;28;20198;-73
2020/12/19 09:40:19;;;;;;;10.73;6.70;;;11.30;77.80;;;;;;5011167;28;20835;-74
2020/12/19 09:42:44;;;;;;;12.87;7.20;;;11.80;76.20;;;;;;5007954;28;20465;-73
2020/12/19 09:45:10;;;;;;;8.57;6.70;;;12.00;73.70;;;;;;4991666;28;20481;-75
2020/12/19 09:47:36;;;;;;;10.53;7.50;;;12.00;71.40;;;;;;5000869;28;20240;-73
2020/12/19 09:50:03;;;;;;;10.67;6.37;;;12.20;71.60;;;;;;5001343;28;20226;-77
2020/12/19 09:52:28;;;;;;;7.80;5.17;;;12.40;70.00;;;;;;4990480;28;20573;-74
2020/12/19 09:54:54;;;;;;;10.80;6.53;;;12.50;69.80;;;;;;4991340;28;20473;-74
2020/12/19 09:57:19;;;;;;;9.70;6.63;;;12.70;69.70;;;;;;4991521;28;20160;-73
2020/12/19 09:59:46;;;;;;;12.10;5.97;;;12.90;68.00;;;;;;4997313;28;20609;-74
2020/12/19 10:02:12;;;;;;;8.60;5.87;;;12.80;67.80;;;;;;5010847;28;20171;-74
2020/12/19 10:04:38;;;;;;;9.77;6.80;;;12.70;67.40;;;;;;5010685;28;20445;-74
2020/12/19 10:07:03;;;;;;;10.27;6.33;;;12.30;67.50;;;;;;5011380;28;20526;-74
2020/12/19 10:09:29;;;;;;;7.93;6.10;;;11.80;69.50;;;;;;5011624;28;20254;-76
2020/12/19 10:11:56;;;;;;;10.67;5.33;;;11.40;71.60;;;;;;5010537;28;20191;-74
2020/12/19 10:14:22;;;;;;;10.20;6.17;;;11.00;72.50;;;;;;5010423;28;20231;-73
2020/12/19 10:16:48;;;;;;;11.20;6.93;;;10.80;74.60;;;;;;4993325;28;20457;-74
2020/12/19 10:19:13;;;;;;;10.13;6.47;;;10.70;75.50;;;;;;5011175;28;20845;-75
2020/12/19 10:21:39;;;;;;;8.77;6.10;;;10.60;75.80;;;;;;5011824;28;20207;-75
2020/12/19 10:24:04;;;;;;;10.43;7.00;;;10.50;76.50;;;;;;5009688;28;20190;-76
2020/12/19 10:26:30;;;;;;;9.70;6.53;;;10.40;75.90;;;;;;5011189;28;20167;-74
2020/12/19 10:28:57;;;;;;;12.40;6.97;;;10.40;76.30;;;;;;5011132;28;20163;-74
2020/12/19 10:31:30;;;;;;;12.47;6.57;;;10.30;76.30;;;;;;5011061;28;20205;-74
2020/12/19 10:33:56;;;;;;;12.00;6.87;;;10.30;76.60;;;;;;5009354;28;20827;-74
2020/12/19 10:36:22;;;;;;;9.73;6.40;;;10.30;77.20;;;;;;5011768;28;20394;-73
2020/12/19 10:38:48;;;;;;;11.43;7.43;;;10.20;77.10;;;;;;5012224;28;20424;-73
2020/12/19 10:41:14;;;;;;;10.00;6.33;;;10.20;77.30;;;;;;5014589;28;20449;-74
2020/12/19 10:43:40;;;;;;;9.53;6.50;;;10.10;77.90;;;;;;5014190;28;20453;-74
2020/12/19 10:46:06;;;;;;;10.60;6.07;;;10.10;78.40;;;;;;5014713;28;20429;-75
2020/12/19 10:48:32;;;;;;;12.07;6.30;;;10.00;78.50;;;;;;5013777;28;20432;-75
2020/12/19 10:50:57;;;;;;;11.77;6.10;;;10.00;78.80;;;;;;5014732;28;20454;-74
2020/12/19 10:53:24;;;;;;;7.67;5.93;;;10.00;78.90;;;;;;5012851;28;20168;-73
2020/12/19 10:55:50;;;;;;;12.83;5.23;;;10.10;79.10;;;;;;5014888;28;20227;-74
2020/12/19 10:58:16;;;;;;;8.73;6.17;;;10.10;79.10;;;;;;5013880;28;20449;-75
2020/12/19 11:00:42;;;;;;;9.17;6.17;;;10.10;79.00;;;;;;5014869;28;20804;-74
2020/12/19 11:03:08;;;;;;;8.50;5.87;;;10.20;79.10;;;;;;5013298;28;20417;-74
2020/12/19 11:05:41;;;;;;;12.47;6.83;;;10.20;78.80;;;;;;5014021;28;20202;-73
2020/12/19 11:08:08;;;;;;;9.93;6.23;;;10.20;78.60;;;;;;5012935;28;20402;-74
2020/12/19 11:10:34;;;;;;;9.23;5.90;;;10.30;78.60;;;;;;5014062;28;20829;-74
2020/12/19 11:13:03;;;;;;;9.37;5.40;;;10.30;78.50;;;;;;5014774;28;20973;-74
2020/12/19 11:15:40;;;;;;;8.57;4.63;;;10.30;78.40;;;;;;5014430;28;20417;-73
2020/12/19 11:18:06;;;;;;;9.27;5.80;;;10.40;78.20;;;;;;4996685;28;20908;-73
2020/12/19 11:20:32;;;;;;;8.83;5.77;;;10.40;78.00;;;;;;5014812;28;20415;-74
2020/12/19 11:22:57;;;;;;;7.77;5.13;;;10.50;77.80;;;;;;5014043;28;20648;-74
2020/12/19 11:25:23;;;;;;;6.80;5.70;;;10.50;77.80;;;;;;5013763;28;20664;-74
2020/12/19 11:27:49;;;;;;;10.03;5.77;;;10.60;77.70;;;;;;5029245;28;20179;-74
2020/12/19 11:30:14;;;;;;;8.03;5.00;;;10.60;77.50;;;;;;5013669;28;20186;-75
2020/12/19 11:32:41;;;;;;;9.60;5.57;;;10.70;77.40;;;;;;5012365;28;20195;-73
2020/12/19 11:35:08;;;;;;;9.37;5.57;;;10.70;77.30;;;;;;5012042;28;20274;-74
2020/12/19 11:37:34;;;;;;;9.93;6.63;;;10.80;77.30;;;;;;5012621;28;20927;-75
2020/12/19 11:39:59;;;;;;;6.37;4.00;;;10.90;77.20;;;;;;5013760;28;20438;-74
2020/12/19 11:42:25;;;;;;;6.60;4.90;;;10.90;77.80;;;;;;5014008;28;20414;-72
2020/12/19 11:44:53;;;;;;;5.87;4.30;;;11.00;76.80;;;;;;5014126;28;20194;-74
2020/12/19 11:47:19;;;;;;;6.43;4.30;;;11.10;76.60;;;;;;5013893;28;20167;-74
2020/12/19 11:49:45;;;;;;;5.13;3.87;;;11.20;76.40;;;;;;5012407;28;20414;-74
2020/12/19 11:52:11;;;;;;;6.20;4.37;;;11.30;76.00;;;;;;5012675;28;20238;-74
2020/12/19 11:54:37;;;;;;;6.33;3.70;;;11.40;75.70;;;;;;5013135;28;20293;-74
2020/12/19 11:57:04;;;;;;;5.43;3.90;;;11.50;75.60;;;;;;5013926;28;20398;-74
2020/12/19 11:59:29;;;;;;;9.40;4.40;;;11.70;74.80;;;;;;5013692;28;20498;-75
2020/12/19 12:01:59;;;;;;;6.60;4.40;;;11.80;74.20;;;;;;5013069;28;20450;-74
2020/12/19 12:04:24;;;;;;;6.37;4.10;;;11.90;73.60;;;;;;5012184;28;20286;-74
2020/12/19 12:06:50;;;;;;;5.30;3.40;;;12.00;73.50;;;;;;5013749;28;20461;-75
2020/12/19 12:09:16;;;;;;;9.77;3.70;;;12.00;73.20;;;;;;5014408;28;20583;-74
2020/12/19 12:11:41;;;;;;;7.17;4.17;;;12.10;73.00;;;;;;5014053;28;20668;-74
2020/12/19 12:14:07;;;;;;;6.80;4.13;;;12.20;72.70;;;;;;5015302;28;20278;-74
2020/12/19 12:16:33;;;;;;;5.80;3.97;;;12.30;72.50;;;;;;5012913;28;20166;-74
2020/12/19 12:18:58;;;;;;;3.30;2.97;;;12.30;71.50;;;;;;5013243;28;20167;-74
2020/12/19 12:21:33;;;;;;;6.30;4.00;;;12.30;71.50;;;;;;5013867;28;20217;-73
2020/12/19 12:23:58;;;;;;;5.97;3.27;;;12.40;71.60;;;;;;5013080;28;20285;-73
2020/12/19 12:26:25;;;;;;;6.20;4.10;;;12.40;71.60;;;;;;5013078;28;20445;-73
2020/12/19 12:28:51;;;;;;;5.80;3.80;;;12.40;71.30;;;;;;5012312;28;20167;-74
2020/12/19 12:31:40;;;;;;;7.93;3.63;;;12.50;71.30;;;;;;5012824;28;20544;-73
2020/12/19 12:34:06;;;;;;;5.17;3.87;;;12.50;70.90;;;;;;5011948;28;20516;-73
2020/12/19 12:36:32;;;;;;;4.53;3.10;;;12.50;70.50;;;;;;5013085;28;20851;-74
2020/12/19 12:38:59;;;;;;;4.63;2.97;;;12.50;70.50;;;;;;5011162;28;20171;-76
2020/12/19 12:41:25;;;;;;;6.83;3.67;;;12.50;70.80;;;;;;5010974;28;20402;-74
2020/12/19 12:43:51;;;;;;;4.00;2.83;;;12.50;70.30;;;;;;5026941;28;20421;-73
2020/12/19 12:46:18;;;;;;;5.27;3.87;;;12.50;70.10;;;;;;5011974;28;20405;-74